createdAt,value
2022-11-28T00:01:43.093Z,99.68
2022-11-28T00:06:49.417Z,99.67
2022-11-28T00:11:54.040Z,99.70
2022-11-28T00:16:57.420Z,100.00
2022-11-28T00:22:00.480Z,100.00
2022-11-28T00:27:05.093Z,100.00
2022-11-28T00:32:08.374Z,100.00
2022-11-28T00:37:11.504Z,99.91
2022-11-28T00:42:16.837Z,100.00
2022-11-28T00:47:19.731Z,100.00
2022-11-28T00:52:22.833Z,99.34
2022-11-28T00:57:27.507Z,99.62
2022-11-28T01:02:30.553Z,99.75
2022-11-28T01:07:34.739Z,99.99
2022-11-28T01:12:39.733Z,99.58
2022-11-28T01:17:42.766Z,99.19
2022-11-28T01:22:45.759Z,99.46
2022-11-28T01:27:50.685Z,99.58
2022-11-28T01:32:54.035Z,99.49
2022-11-28T01:37:57.356Z,99.54
2022-11-28T01:43:02.058Z,99.68
2022-11-28T01:48:05.853Z,99.69
2022-11-28T01:53:11.904Z,99.89
2022-11-28T01:58:16.907Z,100.00
2022-11-28T02:03:34.834Z,99.80
2022-11-28T02:08:38.295Z,99.98
2022-11-28T02:13:51.913Z,99.78
2022-11-28T02:19:10.406Z,99.71
2022-11-28T02:24:45.652Z,99.57
2022-11-28T02:30:15.699Z,99.67
2022-11-28T02:35:24.310Z,99.64
2022-11-28T02:40:32.048Z,99.73
2022-11-28T02:45:41.307Z,99.91
2022-11-28T02:50:54.408Z,99.97
2022-11-28T02:56:02.641Z,99.82
2022-11-28T03:01:07.746Z,99.28
2022-11-28T03:06:22.758Z,99.96
2022-11-28T03:11:37.810Z,99.51
2022-11-28T03:16:49.967Z,99.54
2022-11-28T03:22:05.295Z,100.00
2022-11-28T03:27:18.031Z,99.80
2022-11-28T03:32:25.628Z,99.43
2022-11-28T03:37:34.310Z,99.63
2022-11-28T03:42:41.512Z,99.48
2022-11-28T03:47:47.205Z,99.33
2022-11-28T03:52:55.047Z,99.47
2022-11-28T03:58:01.938Z,99.24
2022-11-28T04:03:12.455Z,99.14
2022-11-28T04:08:36.601Z,99.27
2022-11-28T04:13:51.620Z,98.92
2022-11-28T04:19:08.408Z,98.98
2022-11-28T04:24:19.400Z,99.09
2022-11-28T04:29:25.993Z,98.86
2022-11-28T04:34:31.728Z,99.22
2022-11-28T04:39:37.913Z,99.29
2022-11-28T04:44:48.397Z,98.83
2022-11-28T04:49:51.500Z,98.65
2022-11-28T04:55:04.022Z,98.58
2022-11-28T05:00:15.216Z,98.85
2022-11-28T05:05:21.453Z,98.65
2022-11-28T05:10:25.889Z,98.21
2022-11-28T05:15:28.931Z,98.27
2022-11-28T05:20:32.774Z,98.06
2022-11-28T05:25:39.683Z,98.45
2022-11-28T05:30:42.536Z,98.74
2022-11-28T05:35:45.462Z,97.91
2022-11-28T05:40:49.882Z,98.40
2022-11-28T05:45:53.081Z,98.20
2022-11-28T05:50:56.155Z,99.00
2022-11-28T05:56:00.805Z,98.41
2022-11-28T06:01:11.518Z,98.94
2022-11-28T06:06:15.613Z,98.81
2022-11-28T06:11:21.296Z,98.40
2022-11-28T06:16:26.679Z,98.31
2022-11-28T06:21:30.913Z,98.39
2022-11-28T06:26:35.269Z,98.18
2022-11-28T06:31:38.137Z,98.15
2022-11-28T06:36:41.113Z,97.85
2022-11-28T06:41:45.436Z,98.12
2022-11-28T06:46:48.631Z,97.36
2022-11-28T06:51:51.814Z,97.63
2022-11-28T06:56:56.362Z,97.74
2022-11-28T07:02:07.201Z,97.29
2022-11-28T07:07:16.125Z,97.55
2022-11-28T07:12:20.886Z,97.22
2022-11-28T07:17:25.659Z,96.94
2022-11-28T07:22:28.631Z,97.03
2022-11-28T07:27:32.852Z,97.15
2022-11-28T07:32:35.757Z,97.00
2022-11-28T07:37:38.653Z,96.94
2022-11-28T07:42:42.920Z,96.62
2022-11-28T07:47:45.822Z,96.18
2022-11-28T07:52:49.922Z,96.65
2022-11-28T07:57:59.201Z,95.99
2022-11-28T08:03:02.106Z,95.94
2022-11-28T08:08:05.350Z,95.28
2022-11-28T08:13:09.747Z,95.41
2022-11-28T08:18:13.176Z,95.16
2022-11-28T08:23:16.132Z,95.47
2022-11-28T08:28:20.411Z,95.03
2022-11-28T08:33:23.558Z,94.67
2022-11-28T08:38:26.407Z,94.31
2022-11-28T08:43:30.810Z,94.92
2022-11-28T08:48:33.725Z,95.38
2022-11-28T08:53:36.935Z,95.17
2022-11-28T08:58:41.634Z,94.93
2022-11-28T09:03:45.234Z,94.42
2022-11-28T09:08:48.870Z,94.47
2022-11-28T09:13:53.005Z,95.55
2022-11-28T09:18:57.443Z,95.00
2022-11-28T09:24:00.929Z,95.60
2022-11-28T09:29:05.027Z,95.28
2022-11-28T09:34:07.766Z,95.50
2022-11-28T09:39:10.536Z,95.33
2022-11-28T09:44:23.563Z,94.86
2022-11-28T09:49:40.734Z,94.70
2022-11-28T09:54:50.083Z,94.60
2022-11-28T09:59:54.255Z,94.57
2022-11-28T10:05:09.169Z,94.72
2022-11-28T10:10:23.432Z,94.66
2022-11-28T10:15:46.991Z,94.53
2022-11-28T10:20:55.856Z,94.66
2022-11-28T10:26:03.566Z,95.04
2022-11-28T10:31:13.469Z,95.25
2022-11-28T10:36:23.559Z,95.45
2022-11-28T10:41:32.525Z,95.32
2022-11-28T10:46:50.430Z,94.81
2022-11-28T10:52:04.006Z,94.55
2022-11-28T10:57:12.968Z,94.59
2022-11-28T11:02:22.911Z,94.35
2022-11-28T11:07:30.036Z,94.47
2022-11-28T11:12:34.777Z,94.39
2022-11-28T11:17:38.847Z,94.46
2022-11-28T11:22:54.481Z,94.05
2022-11-28T11:28:00.873Z,93.51
2022-11-28T11:33:07.662Z,93.38
2022-11-28T11:38:19.592Z,93.10
2022-11-28T11:43:28.388Z,93.65
2022-11-28T11:48:37.945Z,93.89
2022-11-28T11:53:40.755Z,94.09
2022-11-28T11:58:47.849Z,93.98
2022-11-28T12:03:58.050Z,94.13
2022-11-28T12:09:08.524Z,94.46
2022-11-28T12:14:26.919Z,94.38
2022-11-28T12:19:38.260Z,94.60
2022-11-28T12:24:51.544Z,94.10
2022-11-28T12:30:05.179Z,94.67
2022-11-28T12:35:22.644Z,94.74
2022-11-28T12:40:33.950Z,95.08
2022-11-28T12:45:45.547Z,94.68
2022-11-28T12:50:56.569Z,94.92
2022-11-28T12:56:10.563Z,94.73
2022-11-28T13:01:26.406Z,94.87
2022-11-28T13:06:41.366Z,94.92
2022-11-28T13:11:57.230Z,94.87
2022-11-28T13:17:13.515Z,94.88
2022-11-28T13:22:24.589Z,93.69
2022-11-28T13:27:36.421Z,93.99
2022-11-28T13:32:46.657Z,93.91
2022-11-28T13:43:28.565Z,94.65
2022-11-28T13:49:15.471Z,94.54
2022-11-28T13:54:52.561Z,94.73
2022-11-28T14:00:00.162Z,95.14
2022-11-28T14:05:04.787Z,94.91
2022-11-28T14:10:32.233Z,95.04
2022-11-28T14:15:45.948Z,95.61
2022-11-28T14:20:57.945Z,95.37
2022-11-28T14:26:02.746Z,95.23
2022-11-28T14:31:16.223Z,95.35
2022-11-28T14:36:29.897Z,96.10
2022-11-28T14:41:36.356Z,96.20
2022-11-28T14:47:06.776Z,96.05
2022-11-28T14:52:40.733Z,95.50
2022-11-28T14:57:55.209Z,95.56
2022-11-28T15:03:16.001Z,95.60
2022-11-28T15:08:39.293Z,95.65
2022-11-28T15:13:58.063Z,95.52
2022-11-28T15:19:06.257Z,95.66
2022-11-28T15:24:23.277Z,95.72
2022-11-28T15:29:28.437Z,95.44
2022-11-28T15:34:33.111Z,95.53
2022-11-28T15:39:41.016Z,95.42
2022-11-28T15:44:44.921Z,95.16
2022-11-28T15:49:58.856Z,94.75
2022-11-28T15:55:03.031Z,94.97
2022-11-28T16:00:07.102Z,94.54
2022-11-28T16:05:12.386Z,94.54
2022-11-28T16:10:24.870Z,93.54
2022-11-28T16:15:28.295Z,93.81
2022-11-28T16:20:36.857Z,93.29
2022-11-28T16:25:41.084Z,93.11
2022-11-28T16:30:48.513Z,93.05
2022-11-28T16:35:51.450Z,93.17
2022-11-28T16:41:00.803Z,93.07
2022-11-28T16:46:07.324Z,92.90
2022-11-28T16:51:39.821Z,92.46
2022-11-28T16:56:48.341Z,92.62
2022-11-28T17:01:54.334Z,92.71
2022-11-28T17:06:58.909Z,92.29
2022-11-28T17:12:07.598Z,92.22
2022-11-28T17:17:14.269Z,91.84
2022-11-28T17:22:19.729Z,91.17
2022-11-28T17:27:23.841Z,91.31
2022-11-28T17:32:26.655Z,90.86
2022-11-28T17:37:29.424Z,91.00
2022-11-28T17:42:33.560Z,91.21
2022-11-28T17:47:36.453Z,91.03
2022-11-28T17:52:39.221Z,90.85
2022-11-28T17:57:43.300Z,90.96
2022-11-28T18:02:46.043Z,90.81
2022-11-28T18:07:48.838Z,91.33
2022-11-28T18:12:52.962Z,91.84
2022-11-28T18:17:55.987Z,92.23
2022-11-28T18:23:00.873Z,92.28
2022-11-28T18:28:05.228Z,92.21
2022-11-28T18:33:08.007Z,92.48
2022-11-28T18:38:11.883Z,92.65
2022-11-28T18:43:16.050Z,93.04
2022-11-28T18:48:18.807Z,92.99
2022-11-28T18:53:21.540Z,92.78
2022-11-28T18:58:25.627Z,93.01
2022-11-28T19:03:28.400Z,93.18
2022-11-28T19:08:31.171Z,93.15
2022-11-28T19:13:35.287Z,93.62
2022-11-28T19:18:38.546Z,93.64
2022-11-28T19:23:42.442Z,93.78
2022-11-28T19:28:47.063Z,94.22
2022-11-28T19:34:00.438Z,94.50
2022-11-28T19:39:05.483Z,94.49
2022-11-28T19:44:10.760Z,94.61
2022-11-28T19:49:18.044Z,94.65
2022-11-28T19:54:21.115Z,95.17
2022-11-28T19:59:25.299Z,95.12
2022-11-28T20:04:28.065Z,94.35
2022-11-28T20:09:30.858Z,94.82
2022-11-28T20:14:35.066Z,94.65
2022-11-28T20:19:37.939Z,94.58
2022-11-28T20:24:40.695Z,95.13
2022-11-28T20:29:45.083Z,95.21
2022-11-28T20:34:48.005Z,95.05
2022-11-28T20:39:50.777Z,95.78
2022-11-28T20:44:54.931Z,95.68
2022-11-28T20:49:57.691Z,95.29
2022-11-28T20:55:00.474Z,95.90
2022-11-28T21:00:05.789Z,96.22
2022-11-28T21:05:09.259Z,95.58
2022-11-28T21:10:12.116Z,96.17
2022-11-28T21:15:16.395Z,96.79
2022-11-28T21:20:19.168Z,96.34
2022-11-28T21:25:22.042Z,96.54
2022-11-28T21:30:26.155Z,97.27
2022-11-28T21:35:29.027Z,96.41
2022-11-28T21:40:31.781Z,97.19
2022-11-28T21:45:36.161Z,96.85
2022-11-28T21:50:39.034Z,97.25
2022-11-28T21:55:41.817Z,97.72
2022-11-28T22:00:53.701Z,98.10
2022-11-28T22:06:01.802Z,98.25
2022-11-28T22:11:05.118Z,98.34
2022-11-28T22:16:11.658Z,98.17
2022-11-28T22:26:39.325Z,98.72
2022-11-28T22:31:44.045Z,98.54
2022-11-28T22:36:47.021Z,98.74
2022-11-28T22:41:49.765Z,98.86
2022-11-28T22:46:53.910Z,99.28
2022-11-28T22:51:56.632Z,99.09
2022-11-28T22:56:59.922Z,99.04
2022-11-28T23:02:04.175Z,98.61
2022-11-28T23:07:07.004Z,99.13
2022-11-28T23:12:09.858Z,99.18
2022-11-28T23:17:13.966Z,99.09
2022-11-28T23:22:16.698Z,98.81
2022-11-28T23:27:19.422Z,98.53
2022-11-28T23:32:23.488Z,98.89
2022-11-28T23:37:26.193Z,99.12
2022-11-28T23:42:28.932Z,99.73
2022-11-28T23:47:33.010Z,99.57
2022-11-28T23:52:35.725Z,99.48
2022-11-28T23:57:38.436Z,99.55
